TULLOCH (TUL)

Elevation: 515' · STANISLAUS R basin · Operator: US Bureau of Reclamation


Station comments:

05/18/2015The capacity was revised in April 2015 using data from the US Bureau of Reclamation


Provisional data, subject to change.
Query executed Friday at 0:38:10   clock

Select a sensor type for a plot of data.
Note: Reservoir Flows are daily averages.

Earlier

Date RES ELE    STORAGE    RES CHG    TOC STO    ABV TOC    OUTFLOW    INFLOW    EVAP    RIV REL    SPILL    DIS PWR   
 FEET   AF   AF   AF   AF   CFS   CFS   CFS   CFS   CFS   CFS  
08/05/2015 507.83 64283 61 67000 -2717 1295 1337 11 0 0 1295
08/06/2015 507.49 63871 -412 67000 -3129 1234 1039 13 0 0 1234
08/07/2015 508.10 64612 741 67000 -2388 1208 1594 12 0 0 1208
08/08/2015 508.10 64612 0 67000 -2388 1220 1232 12 0 0 1220
08/09/2015 507.95 64428 -184 67000 -2572 1182 1101 12 0 0 1182
08/10/2015 507.94 64416 -12 67000 -2584 1102 1114 18 35 0 1067
08/11/2015 508.22 64760 344 67000 -2240 1067 1255 15 0 0 1067
08/12/2015 508.02 64514 -246 67000 -2486 1096 988 16 0 0 1096
08/13/2015 507.45 63822 -- 67000 -3178 1139 805 15 0 0 1139
08/14/2015 507.83 64283 461 67000 -2717 1137 1386 17 0 0 1137
08/15/2015 508.23 64772 489 67000 -2228 1145 1407 15 0 0 1145
08/16/2015 508.83 65511 739 67000 -1489 1181 1572 18 0 0 1181
08/17/2015 509.50 66344 833 67000 -656 1067 1506 19 0 0 1067
08/18/2015 509.51 66356 12 67000 -644 1000 1025 19 0 0 1000
08/19/2015 507.91 64380 -1976 67000 -2620 986 8 18 0 0 986
08/20/2015 507.43 63798 -582 67000 -3202 992 716 17 0 0 992
08/21/2015 507.35 63701 -97 67000 -3299 1035 1000 14 0 0 1035
08/22/2015 507.33 63677 -24 67000 -3323 1087 1089 14 0 0 1087
08/23/2015 507.40 63762 85 67000 -3238 990 1048 15 0 0 990
08/24/2015 507.59 63992 230 67000 -3008 929 1058 13 0 0 929
08/25/2015 507.74 64174 182 67000 -2826 930 1037 15 0 0 930
08/26/2015 507.54 63931 -243 67000 -3069 956 849 16 0 0 956
08/27/2015 507.41 63774 -157 67000 -3226 952 891 18 0 0 952
08/28/2015 507.34 63689 -85 67000 -3311 985 958 16 0 0 985
08/29/2015 507.26 63592 -97 67000 -3408 1018 985 16 0 0 1018
08/30/2015 507.17 63483 -109 67000 -3517 1035 994 14 0 0 1035
08/31/2015 507.26 63592 109 67000 -3408 1003 1071 13 0 0 1003
09/01/2015 507.14 63447 -145 67000 -3553 993 933 13 0 0 993
09/02/2015 507.01 63289 -158 67000 -3711 995 928 13 0 0 995
09/03/2015 -- -- -- -- -- -- -- -- -- -- --
09/04/2015 -- -- -- -- -- -- -- -- -- -- --

Later | Latest

Warning! This data is preliminary and subject to revision.

Show TUL Map | Plot TUL Data | 1 Month TUL Data | Real-Time TUL Data | TUL Info